Time,TemperatureF,DewpointF,PressureIn,WindDirection,WindDirectionDegrees,WindSpeedMPH,WindSpeedGustMPH,Humidity,HourlyPrecipIn,Conditions,Clouds,dailyrainin,SoftwareType,DateUTC
2013-06-05 00:00:00,68.8,68.8,29.65,North,357,0.0,0.0,100,0.00,,,0.00,VWS V14.01,2013-06-05 04:00:00,
2013-06-05 00:05:00,68.6,68.6,29.65,North,357,0.0,0.0,100,0.00,,,0.00,VWS V14.01,2013-06-05 04:05:00,
2013-06-05 00:10:00,68.6,68.6,29.65,North,357,0.0,0.0,100,0.00,,,0.00,VWS V14.01,2013-06-05 04:10:00,
2013-06-05 00:15:00,68.4,68.4,29.65,North,357,0.0,0.0,100,0.00,,,0.00,VWS V14.01,2013-06-05 04:15:00,
2013-06-05 00:20:00,68.3,68.3,29.65,North,357,0.0,0.0,100,0.00,,,0.00,VWS V14.01,2013-06-05 04:20:00,
2013-06-05 00:25:00,68.3,68.3,29.65,North,357,0.0,0.0,100,0.00,,,0.00,VWS V14.01,2013-06-05 04:25:00,
2013-06-05 00:30:00,68.3,68.3,29.65,North,357,0.0,0.0,100,0.00,,,0.00,VWS V14.01,2013-06-05 04:30:00,
2013-06-05 00:35:00,68.3,68.3,29.65,North,357,0.0,0.0,100,0.00,,,0.00,VWS V14.01,2013-06-05 04:35:00,
2013-06-05 00:40:00,67.9,67.9,29.65,North,357,0.0,0.0,100,0.00,,,0.00,VWS V14.01,2013-06-05 04:40:00,
2013-06-05 00:45:00,67.9,67.9,29.65,North,357,0.0,0.0,100,0.00,,,0.00,VWS V14.01,2013-06-05 04:45:00,
2013-06-05 00:50:00,67.7,67.7,29.65,North,357,0.0,0.0,100,0.00,,,0.00,VWS V14.01,2013-06-05 04:50:00,
2013-06-05 00:55:00,67.5,67.5,29.65,North,357,0.0,0.0,100,0.00,,,0.00,VWS V14.01,2013-06-05 04:55:00,
2013-06-05 01:00:00,67.5,67.5,29.65,North,357,0.0,0.0,100,0.00,,,0.00,VWS V14.01,2013-06-05 05:00:00,
2013-06-05 01:05:00,67.4,67.4,29.65,North,357,0.0,0.0,100,0.00,,,0.00,VWS V14.01,2013-06-05 05:05:00,
2013-06-05 01:10:00,67.4,67.4,29.65,North,357,0.0,0.0,100,0.00,,,0.00,VWS V14.01,2013-06-05 05:10:00,
2013-06-05 01:15:00,67.4,67.4,29.65,North,357,0.0,0.0,100,0.00,,,0.00,VWS V14.01,2013-06-05 05:15:00,
2013-06-05 01:20:00,67.2,67.2,29.65,North,357,0.0,0.0,100,0.00,,,0.00,VWS V14.01,2013-06-05 05:20:00,
2013-06-05 01:25:00,67.2,67.2,29.65,North,357,0.0,0.0,100,0.00,,,0.00,VWS V14.01,2013-06-05 05:25:00,
2013-06-05 01:30:00,67.0,67.0,29.65,North,357,0.0,0.0,100,0.00,,,0.00,VWS V14.01,2013-06-05 05:30:00,
2013-06-05 01:35:00,66.8,66.8,29.65,North,357,0.0,0.0,100,0.00,,,0.00,VWS V14.01,2013-06-05 05:35:00,
2013-06-05 01:40:00,66.8,66.8,29.65,North,357,0.0,0.0,100,0.00,,,0.00,VWS V14.01,2013-06-05 05:40:00,
2013-06-05 01:45:00,66.8,66.8,29.65,North,357,0.0,0.0,100,0.00,,,0.00,VWS V14.01,2013-06-05 05:45:00,
2013-06-05 01:50:00,66.8,66.8,29.65,North,357,0.0,0.0,100,0.00,,,0.00,VWS V14.01,2013-06-05 05:50:00,
2013-06-05 01:55:00,66.6,66.6,29.65,North,357,0.0,0.0,100,0.00,,,0.00,VWS V14.01,2013-06-05 05:55:00,
2013-06-05 02:00:00,66.6,66.6,29.65,North,357,0.0,0.0,100,0.00,,,0.00,VWS V14.01,2013-06-05 06:00:00,
2013-06-05 02:05:00,66.6,66.6,29.65,North,357,0.0,0.0,100,0.00,,,0.00,VWS V14.01,2013-06-05 06:05:00,
2013-06-05 02:10:00,66.6,66.6,29.65,North,357,0.0,0.0,100,0.00,,,0.00,VWS V14.01,2013-06-05 06:10:00,
2013-06-05 02:15:00,66.5,66.5,29.65,North,357,0.0,0.0,100,0.00,,,0.00,VWS V14.01,2013-06-05 06:15:00,
2013-06-05 02:20:00,66.3,66.3,29.65,North,357,0.0,0.0,100,0.00,,,0.00,VWS V14.01,2013-06-05 06:20:00,
2013-06-05 02:25:00,66.3,66.3,29.62,North,357,0.0,0.0,100,0.00,,,0.00,VWS V14.01,2013-06-05 06:25:00,
2013-06-05 02:30:00,66.3,66.3,29.62,North,357,0.0,0.0,100,0.00,,,0.00,VWS V14.01,2013-06-05 06:30:00,
2013-06-05 02:35:00,66.3,66.3,29.62,North,357,0.0,0.0,100,0.00,,,0.00,VWS V14.01,2013-06-05 06:35:00,
2013-06-05 02:40:00,66.5,66.5,29.62,North,357,0.0,0.0,100,0.00,,,0.00,VWS V14.01,2013-06-05 06:40:00,
2013-06-05 02:45:00,66.6,66.6,29.62,North,357,0.0,0.0,100,0.00,,,0.00,VWS V14.01,2013-06-05 06:45:00,
2013-06-05 02:50:00,66.8,66.8,29.62,North,357,0.0,0.0,100,0.00,,,0.00,VWS V14.01,2013-06-05 06:50:00,
2013-06-05 02:55:00,66.8,66.8,29.62,North,357,0.0,0.0,100,0.00,,,0.00,VWS V14.01,2013-06-05 06:55:00,
2013-06-05 03:00:00,66.8,66.8,29.62,North,357,0.0,0.0,100,0.00,,,0.00,VWS V14.01,2013-06-05 07:00:00,
2013-06-05 03:05:00,67.4,67.4,29.62,North,357,0.0,0.0,100,0.00,,,0.00,VWS V14.01,2013-06-05 07:05:00,
2013-06-05 03:10:00,67.4,67.4,29.62,North,357,0.0,0.0,100,0.00,,,0.00,VWS V14.01,2013-06-05 07:10:00,
2013-06-05 03:15:00,67.4,67.4,29.62,North,357,0.0,0.0,100,0.00,,,0.00,VWS V14.01,2013-06-05 07:15:00,
2013-06-05 03:20:00,67.4,67.4,29.62,North,357,0.0,0.0,100,0.00,,,0.00,VWS V14.01,2013-06-05 07:20:00,
2013-06-05 03:25:00,67.5,67.5,29.62,North,357,0.0,0.0,100,0.00,,,0.00,VWS V14.01,2013-06-05 07:25:00,
2013-06-05 03:30:00,67.5,67.5,29.62,North,357,0.0,0.0,100,0.00,,,0.00,VWS V14.01,2013-06-05 07:30:00,
2013-06-05 03:35:00,67.5,67.5,29.62,North,357,0.0,0.0,100,0.00,,,0.00,VWS V14.01,2013-06-05 07:35:00,
2013-06-05 03:40:00,67.7,67.7,29.62,North,357,0.0,0.0,100,0.00,,,0.00,VWS V14.01,2013-06-05 07:40:00,
2013-06-05 03:45:00,67.7,67.7,29.62,North,357,0.0,0.0,100,0.00,,,0.00,VWS V14.01,2013-06-05 07:45:00,
2013-06-05 03:50:00,67.7,67.7,29.62,North,357,0.0,0.0,100,0.00,,,0.00,VWS V14.01,2013-06-05 07:50:00,
2013-06-05 03:55:00,67.9,67.9,29.62,North,357,0.0,0.0,100,0.00,,,0.00,VWS V14.01,2013-06-05 07:55:00,
2013-06-05 04:00:00,67.9,67.9,29.62,North,357,0.0,0.0,100,0.00,,,0.00,VWS V14.01,2013-06-05 08:00:00,
2013-06-05 04:05:00,67.9,67.9,29.62,North,357,0.0,0.0,100,0.00,,,0.00,VWS V14.01,2013-06-05 08:05:00,
2013-06-05 04:10:00,67.9,67.9,29.62,North,357,0.0,0.0,100,0.00,,,0.00,VWS V14.01,2013-06-05 08:10:00,
2013-06-05 04:15:00,68.1,68.1,29.62,SSW,193,0.0,0.0,100,0.00,,,0.00,VWS V14.01,2013-06-05 08:15:00,
2013-06-05 04:20:00,68.1,68.1,29.62,South,183,2.7,2.7,100,0.00,,,0.00,VWS V14.01,2013-06-05 08:20:00,
2013-06-05 04:25:00,68.1,68.1,29.59,South,171,0.0,2.7,100,0.00,,,0.00,VWS V14.01,2013-06-05 08:25:00,
2013-06-05 04:30:00,68.1,68.1,29.59,South,189,0.0,0.0,100,0.00,,,0.00,VWS V14.01,2013-06-05 08:30:00,
2013-06-05 04:36:00,68.1,68.1,29.62,South,185,0.0,0.0,100,0.00,,,0.00,VWS V14.01,2013-06-05 08:36:00,
2013-06-05 04:41:00,68.3,68.3,29.62,WNW,293,0.0,0.0,100,0.00,,,0.00,VWS V14.01,2013-06-05 08:41:00,
2013-06-05 04:46:00,68.3,68.3,29.62,WNW,294,0.0,0.0,100,0.00,,,0.00,VWS V14.01,2013-06-05 08:46:00,
2013-06-05 04:51:00,68.3,68.3,29.62,South,181,0.0,0.0,100,0.00,,,0.00,VWS V14.01,2013-06-05 08:51:00,
2013-06-05 04:56:00,68.3,68.3,29.62,North,357,0.0,0.0,100,0.00,,,0.00,VWS V14.01,2013-06-05 08:56:00,
2013-06-05 05:00:00,68.3,68.3,29.62,North,357,0.0,0.0,100,0.00,,,0.00,VWS V14.01,2013-06-05 09:00:00,
2013-06-05 05:01:00,68.3,68.3,29.62,North,357,0.0,0.0,100,0.00,,,0.00,VWS V14.01,2013-06-05 09:01:00,
2013-06-05 05:06:00,68.4,68.4,29.62,North,357,0.0,0.0,100,0.00,,,0.00,VWS V14.01,2013-06-05 09:06:00,
2013-06-05 05:10:00,68.4,68.4,29.62,WSW,251,0.0,0.0,100,0.00,,,0.00,VWS V14.01,2013-06-05 09:10:00,
2013-06-05 05:11:00,68.4,68.4,29.62,SW,224,0.0,0.0,100,0.00,,,0.00,VWS V14.01,2013-06-05 09:11:00,
2013-06-05 05:16:00,68.4,68.4,29.62,SW,224,0.0,0.0,100,0.00,,,0.00,VWS V14.01,2013-06-05 09:16:00,
2013-06-05 05:20:00,68.4,68.4,29.62,South,188,0.0,0.0,100,0.00,,,0.00,VWS V14.01,2013-06-05 09:20:00,
2013-06-05 05:21:00,68.4,68.4,29.62,South,188,0.0,0.0,100,0.00,,,0.00,VWS V14.01,2013-06-05 09:21:00,
2013-06-05 05:26:00,68.6,68.6,29.62,South,176,0.0,2.7,100,0.00,,,0.00,VWS V14.01,2013-06-05 09:26:00,
2013-06-05 05:31:00,68.6,68.6,29.62,South,176,0.0,0.0,100,0.00,,,0.00,VWS V14.01,2013-06-05 09:31:00,
2013-06-05 05:36:00,68.6,68.6,29.62,South,176,0.0,0.0,100,0.00,,,0.00,VWS V14.01,2013-06-05 09:36:00,
2013-06-05 05:40:00,68.6,68.6,29.62,South,176,0.0,0.0,100,0.00,,,0.00,VWS V14.01,2013-06-05 09:40:00,
2013-06-05 05:41:00,68.6,68.6,29.62,South,176,0.0,0.0,100,0.00,,,0.00,VWS V14.01,2013-06-05 09:41:00,
2013-06-05 05:46:00,68.6,68.6,29.62,South,176,0.0,0.0,100,0.00,,,0.00,VWS V14.01,2013-06-05 09:46:00,
2013-06-05 05:50:00,68.6,68.6,29.65,South,176,0.0,0.0,100,0.00,,,0.00,VWS V14.01,2013-06-05 09:50:00,
2013-06-05 05:51:00,68.6,68.6,29.65,South,176,0.0,0.0,100,0.00,,,0.00,VWS V14.01,2013-06-05 09:51:00,
2013-06-05 05:56:00,68.6,68.6,29.65,South,176,0.0,0.0,100,0.00,,,0.00,VWS V14.01,2013-06-05 09:56:00,
2013-06-05 06:01:00,68.6,68.6,29.65,South,176,0.0,0.0,100,0.00,,,0.00,VWS V14.01,2013-06-05 10:01:00,
2013-06-05 06:06:00,68.8,68.8,29.65,South,176,0.0,0.0,100,0.00,,,0.00,VWS V14.01,2013-06-05 10:06:00,
2013-06-05 06:10:00,68.8,68.8,29.65,South,176,0.0,0.0,100,0.00,,,0.00,VWS V14.01,2013-06-05 10:10:00,
2013-06-05 06:11:00,68.8,68.8,29.65,South,176,0.0,0.0,100,0.00,,,0.00,VWS V14.01,2013-06-05 10:11:00,
2013-06-05 06:16:00,68.8,68.8,29.65,South,176,0.0,0.0,100,0.00,,,0.00,VWS V14.01,2013-06-05 10:16:00,
2013-06-05 06:21:00,68.8,68.8,29.65,South,176,0.0,0.0,100,0.00,,,0.00,VWS V14.01,2013-06-05 10:21:00,
2013-06-05 06:26:00,68.8,68.8,29.65,South,176,0.0,0.0,100,0.00,,,0.00,VWS V14.01,2013-06-05 10:26:00,
2013-06-05 06:30:00,68.8,68.8,29.65,South,176,0.0,0.0,100,0.00,,,0.00,VWS V14.01,2013-06-05 10:30:00,
2013-06-05 06:31:00,68.8,68.8,29.65,South,176,0.0,0.0,100,0.00,,,0.00,VWS V14.01,2013-06-05 10:31:00,
2013-06-05 06:36:00,69.0,69.0,29.65,SSW,212,0.0,0.0,100,0.00,,,0.00,VWS V14.01,2013-06-05 10:36:00,
2013-06-05 06:40:00,69.0,69.0,29.65,SSW,208,0.0,0.0,100,0.00,,,0.00,VWS V14.01,2013-06-05 10:40:00,
2013-06-05 06:41:00,69.0,69.0,29.65,SSW,208,0.0,0.0,100,0.00,,,0.00,VWS V14.01,2013-06-05 10:41:00,
2013-06-05 06:46:00,69.0,69.0,29.65,SSW,208,0.0,0.0,100,0.00,,,0.00,VWS V14.01,2013-06-05 10:46:00,
2013-06-05 06:50:00,69.0,69.0,29.65,WSW,243,0.0,0.0,100,0.00,,,0.00,VWS V14.01,2013-06-05 10:50:00,
2013-06-05 06:56:00,69.0,69.0,29.65,West,259,0.0,0.0,100,0.00,,,0.00,VWS V14.01,2013-06-05 10:56:00,
2013-06-05 07:00:00,69.2,69.2,29.65,West,259,0.0,0.0,100,0.00,,,0.00,VWS V14.01,2013-06-05 11:00:00,
2013-06-05 07:10:00,69.2,69.2,29.65,West,259,0.0,0.0,100,0.00,,,0.00,VWS V14.01,2013-06-05 11:10:00,
2013-06-05 07:11:00,69.2,69.2,29.65,West,259,0.0,0.0,100,0.00,,,0.00,VWS V14.01,2013-06-05 11:11:00,
2013-06-05 07:16:00,69.2,69.2,29.65,WSW,254,0.0,0.0,100,0.00,,,0.00,VWS V14.01,2013-06-05 11:16:00,
2013-06-05 07:20:00,69.2,69.2,29.65,WSW,254,0.0,0.0,100,0.00,,,0.00,VWS V14.01,2013-06-05 11:20:00,
2013-06-05 07:22:00,69.2,69.2,29.65,WSW,254,0.0,0.0,100,0.00,,,0.00,VWS V14.01,2013-06-05 11:22:00,
2013-06-05 07:27:00,69.3,69.3,29.65,West,267,0.0,0.0,100,0.00,,,0.00,VWS V14.01,2013-06-05 11:27:00,
2013-06-05 07:30:00,69.3,69.3,29.65,ESE,103,0.0,0.0,100,0.00,,,0.00,VWS V14.01,2013-06-05 11:30:00,
2013-06-05 07:32:00,69.3,69.3,29.65,ESE,103,0.0,0.0,100,0.00,,,0.00,VWS V14.01,2013-06-05 11:32:00,
2013-06-05 07:37:00,69.3,69.3,29.65,SSE,149,0.0,0.0,100,0.00,,,0.00,VWS V14.01,2013-06-05 11:37:00,
2013-06-05 07:40:00,69.5,69.5,29.65,SSE,150,0.0,0.0,100,0.00,,,0.00,VWS V14.01,2013-06-05 11:40:00,
2013-06-05 07:42:00,69.5,69.5,29.65,SSE,150,0.0,0.0,100,0.00,,,0.00,VWS V14.01,2013-06-05 11:42:00,
2013-06-05 07:47:00,69.7,69.7,29.65,SSE,154,0.0,0.0,100,0.00,,,0.00,VWS V14.01,2013-06-05 11:47:00,
2013-06-05 07:50:00,69.7,69.7,29.65,SSE,154,0.0,0.0,100,0.00,,,0.00,VWS V14.01,2013-06-05 11:50:00,
2013-06-05 07:52:00,69.7,69.7,29.65,West,265,0.0,0.0,100,0.00,,,0.00,VWS V14.01,2013-06-05 11:52:00,
2013-06-05 07:57:00,70.2,70.2,29.65,West,265,0.0,0.0,100,0.00,,,0.00,VWS V14.01,2013-06-05 11:57:00,
2013-06-05 08:02:00,70.4,70.4,29.65,ENE,69,0.0,0.0,100,0.00,,,0.00,VWS V14.01,2013-06-05 12:02:00,
2013-06-05 08:07:00,70.8,70.8,29.65,ENE,69,0.0,0.0,100,0.00,,,0.00,VWS V14.01,2013-06-05 12:07:00,
2013-06-05 08:10:00,71.1,71.1,29.65,SSW,202,0.0,0.0,100,0.00,,,0.00,VWS V14.01,2013-06-05 12:10:00,
2013-06-05 08:12:00,71.1,71.1,29.65,ESE,114,2.2,2.2,100,0.00,,,0.00,VWS V14.01,2013-06-05 12:12:00,
2013-06-05 08:17:00,71.1,71.1,29.65,ESE,114,0.0,2.2,100,0.00,,,0.00,VWS V14.01,2013-06-05 12:17:00,
2013-06-05 08:20:00,71.1,71.1,29.65,SSE,147,3.6,3.6,100,0.00,,,0.00,VWS V14.01,2013-06-05 12:20:00,
2013-06-05 08:22:00,71.1,71.1,29.65,SSE,147,3.6,3.6,100,0.00,,,0.00,VWS V14.01,2013-06-05 12:22:00,
2013-06-05 08:27:00,71.5,71.5,29.65,South,184,0.0,3.6,100,0.00,,,0.00,VWS V14.01,2013-06-05 12:27:00,
2013-06-05 08:30:00,71.7,71.7,29.65,West,266,2.7,3.6,100,0.00,,,0.00,VWS V14.01,2013-06-05 12:30:00,
2013-06-05 08:37:00,72.2,72.2,29.62,NW,306,0.0,2.7,100,0.00,,,0.00,VWS V14.01,2013-06-05 12:37:00,
2013-06-05 08:40:00,72.6,72.6,29.62,NE,39,2.2,2.7,100,0.00,,,0.00,VWS V14.01,2013-06-05 12:40:00,
2013-06-05 08:47:00,72.9,72.9,29.62,NNE,15,0.0,2.2,100,0.00,,,0.00,VWS V14.01,2013-06-05 12:47:00,
2013-06-05 08:50:00,73.1,73.1,29.62,NNE,15,0.0,2.2,100,0.00,,,0.00,VWS V14.01,2013-06-05 12:50:00,
2013-06-05 08:52:00,73.3,73.3,29.62,NNW,348,0.0,0.0,100,0.00,,,0.00,VWS V14.01,2013-06-05 12:52:00,
2013-06-05 08:57:00,73.3,73.3,29.65,SW,228,0.0,0.0,100,0.00,,,0.00,VWS V14.01,2013-06-05 12:57:00,
2013-06-05 09:02:00,73.3,73.3,29.65,WSW,241,0.0,0.0,100,0.00,,,0.00,VWS V14.01,2013-06-05 13:02:00,
2013-06-05 09:07:00,73.7,73.7,29.65,South,187,0.0,0.0,100,0.00,,,0.00,VWS V14.01,2013-06-05 13:07:00,
2013-06-05 09:10:00,73.7,73.7,29.65,SW,228,0.0,0.0,100,0.00,,,0.00,VWS V14.01,2013-06-05 13:10:00,
2013-06-05 09:12:00,73.7,73.7,29.65,North,353,2.7,2.7,100,0.00,,,0.00,VWS V14.01,2013-06-05 13:12:00,
2013-06-05 09:17:00,73.7,73.7,29.65,WNW,299,2.7,2.7,100,0.00,,,0.00,VWS V14.01,2013-06-05 13:17:00,
2013-06-05 09:22:00,73.7,73.7,29.62,SW,222,0.0,0.0,100,0.00,,,0.00,VWS V14.01,2013-06-05 13:22:00,
2013-06-05 09:27:00,73.7,73.7,29.62,WSW,242,0.0,0.0,100,0.00,,,0.00,VWS V14.01,2013-06-05 13:27:00,
2013-06-05 09:30:00,73.5,73.5,29.62,WSW,242,0.0,0.0,100,0.00,,,0.00,VWS V14.01,2013-06-05 13:30:00,
2013-06-05 09:32:00,73.5,73.5,29.62,WSW,242,0.0,0.0,100,0.00,,,0.00,VWS V14.01,2013-06-05 13:32:00,
2013-06-05 09:37:00,73.5,73.5,29.65,SSE,164,0.0,0.0,100,0.00,,,0.00,VWS V14.01,2013-06-05 13:37:00,
2013-06-05 09:42:00,73.3,73.3,29.65,SSE,164,0.0,0.0,100,0.00,,,0.00,VWS V14.01,2013-06-05 13:42:00,
2013-06-05 09:47:00,73.3,73.3,29.65,WSW,237,0.0,0.0,100,0.00,,,0.00,VWS V14.01,2013-06-05 13:47:00,
2013-06-05 09:50:00,73.3,73.3,29.65,South,182,0.0,0.0,100,0.00,,,0.00,VWS V14.01,2013-06-05 13:50:00,
2013-06-05 09:52:00,73.3,73.3,29.65,South,182,0.0,0.0,100,0.00,,,0.00,VWS V14.01,2013-06-05 13:52:00,
2013-06-05 09:57:00,73.5,73.5,29.65,South,183,0.0,0.0,100,0.00,,,0.00,VWS V14.01,2013-06-05 13:57:00,
2013-06-05 10:00:00,73.7,73.7,29.65,South,182,0.0,0.0,100,0.00,,,0.00,VWS V14.01,2013-06-05 14:00:00,
2013-06-05 10:02:00,73.7,73.7,29.65,South,182,0.0,0.0,100,0.00,,,0.00,VWS V14.01,2013-06-05 14:02:00,
2013-06-05 10:07:00,73.8,73.8,29.62,South,183,0.0,0.0,100,0.00,,,0.00,VWS V14.01,2013-06-05 14:07:00,
2013-06-05 10:10:00,74.0,74.0,29.62,SW,223,0.0,0.0,100,0.00,,,0.00,VWS V14.01,2013-06-05 14:10:00,
2013-06-05 10:12:00,74.0,74.0,29.62,SW,224,0.0,0.0,100,0.00,,,0.00,VWS V14.01,2013-06-05 14:12:00,
2013-06-05 10:17:00,74.4,74.4,29.62,SE,140,0.0,0.0,100,0.00,,,0.00,VWS V14.01,2013-06-05 14:17:00,
2013-06-05 10:20:00,74.4,74.4,29.62,SSW,213,0.0,0.0,100,0.00,,,0.00,VWS V14.01,2013-06-05 14:20:00,
2013-06-05 10:22:00,74.7,74.8,29.62,SSW,213,0.0,0.0,100,0.00,,,0.00,VWS V14.01,2013-06-05 14:22:00,
2013-06-05 10:27:00,74.9,74.9,29.62,WSW,240,0.0,0.0,100,0.00,,,0.00,VWS V14.01,2013-06-05 14:27:00,
2013-06-05 10:30:00,75.5,75.5,29.62,West,278,0.0,0.0,100,0.00,,,0.00,VWS V14.01,2013-06-05 14:30:00,
2013-06-05 10:32:00,75.5,75.5,29.62,WNW,297,3.1,3.1,100,0.00,,,0.00,VWS V14.01,2013-06-05 14:32:00,
2013-06-05 10:37:00,75.6,75.7,29.62,South,172,0.0,3.1,100,0.00,,,0.00,VWS V14.01,2013-06-05 14:37:00,
2013-06-05 10:42:00,75.8,75.8,29.62,SW,235,0.0,0.0,100,0.00,,,0.00,VWS V14.01,2013-06-05 14:42:00,
2013-06-05 10:47:00,76.0,76.0,29.62,SW,224,2.7,2.7,100,0.00,,,0.00,VWS V14.01,2013-06-05 14:47:00,
2013-06-05 10:50:00,76.2,76.2,29.62,SW,224,2.7,2.7,100,0.00,,,0.00,VWS V14.01,2013-06-05 14:50:00,
2013-06-05 10:52:00,76.2,76.2,29.62,NNE,22,2.7,2.7,100,0.00,,,0.00,VWS V14.01,2013-06-05 14:52:00,
2013-06-05 10:57:00,76.7,76.7,29.62,NE,39,2.7,2.7,100,0.00,,,0.00,VWS V14.01,2013-06-05 14:57:00,
2013-06-05 11:02:00,77.3,77.3,29.62,ENE,58,2.2,4.9,100,0.00,,,0.00,VWS V14.01,2013-06-05 15:02:00,
2013-06-05 11:07:00,78.3,78.3,29.62,South,178,2.2,4.9,100,0.00,,,0.00,VWS V14.01,2013-06-05 15:07:00,
2013-06-05 11:10:00,78.3,78.3,29.62,SE,135,3.6,4.9,100,0.00,,,0.00,VWS V14.01,2013-06-05 15:10:00,
2013-06-05 11:12:00,78.3,78.3,29.62,ENE,63,0.0,3.6,100,0.00,,,0.00,VWS V14.01,2013-06-05 15:12:00,
2013-06-05 11:17:00,81.0,81.1,29.62,SE,138,2.7,3.6,100,0.00,,,0.00,VWS V14.01,2013-06-05 15:17:00,
2013-06-05 11:22:00,81.2,81.2,29.62,WSW,245,0.0,0.0,100,0.00,,,0.00,VWS V14.01,2013-06-05 15:22:00,
2013-06-05 11:27:00,81.0,81.1,29.62,SW,214,2.7,2.7,100,0.00,,,0.00,VWS V14.01,2013-06-05 15:27:00,
2013-06-05 11:30:00,81.0,81.1,29.62,SSW,206,0.0,2.7,100,0.00,,,0.00,VWS V14.01,2013-06-05 15:30:00,
2013-06-05 11:32:00,81.0,81.1,29.62,NNW,338,3.1,3.1,100,0.00,,,0.00,VWS V14.01,2013-06-05 15:32:00,
2013-06-05 11:37:00,81.0,81.1,29.62,NW,305,2.2,3.1,100,0.00,,,0.00,VWS V14.01,2013-06-05 15:37:00,
2013-06-05 11:42:00,79.8,79.8,29.62,NNE,32,3.1,3.1,100,0.00,,,0.00,VWS V14.01,2013-06-05 15:42:00,
2013-06-05 11:47:00,79.8,79.8,29.62,NE,45,2.2,3.1,100,0.00,,,0.00,VWS V14.01,2013-06-05 15:47:00,
2013-06-05 11:52:00,78.5,78.5,29.62,NNW,329,2.2,2.2,100,0.00,,,0.00,VWS V14.01,2013-06-05 15:52:00,
2013-06-05 11:57:00,78.2,78.2,29.62,NE,51,0.0,2.7,100,0.00,,,0.00,VWS V14.01,2013-06-05 15:57:00,
2013-06-05 12:00:00,78.3,78.3,29.62,WSW,243,0.0,2.7,100,0.00,,,0.00,VWS V14.01,2013-06-05 16:00:00,
2013-06-05 12:02:00,78.3,78.3,29.62,WSW,243,0.0,0.0,100,0.00,,,0.00,VWS V14.01,2013-06-05 16:02:00,
2013-06-05 12:07:00,79.2,79.2,29.62,SSW,207,0.0,0.0,100,0.00,,,0.00,VWS V14.01,2013-06-05 16:07:00,
2013-06-05 12:12:00,79.2,79.2,29.62,North,357,0.0,2.7,100,0.00,,,0.00,VWS V14.01,2013-06-05 16:12:00,
2013-06-05 12:17:00,81.4,78.9,29.62,West,277,2.7,2.7,92,0.00,,,0.00,VWS V14.01,2013-06-05 16:17:00,
2013-06-05 12:20:00,81.4,78.9,29.62,South,191,2.7,2.7,92,0.00,,,0.00,VWS V14.01,2013-06-05 16:20:00,
2013-06-05 12:27:00,83.7,77.1,29.62,ENE,72,3.1,3.1,80,0.00,,,0.00,VWS V14.01,2013-06-05 16:27:00,
2013-06-05 12:30:00,83.7,78.0,29.62,West,266,2.2,3.1,83,0.00,,,0.00,VWS V14.01,2013-06-05 16:30:00,
2013-06-05 12:32:00,84.1,76.6,29.62,WSW,242,2.7,2.7,78,0.00,,,0.00,VWS V14.01,2013-06-05 16:32:00,
2013-06-05 12:37:00,85.0,76.6,29.62,SSE,157,2.7,2.7,76,0.00,,,0.00,VWS V14.01,2013-06-05 16:37:00,
2013-06-05 12:42:00,85.9,74.6,29.62,ENE,65,3.1,3.1,69,0.00,,,0.00,VWS V14.01,2013-06-05 16:42:00,
2013-06-05 12:47:00,86.3,75.9,29.62,NE,37,3.6,4.0,71,0.00,,,0.00,VWS V14.01,2013-06-05 16:47:00,
2013-06-05 12:50:00,86.1,74.7,29.62,NE,37,3.6,4.0,69,0.00,,,0.00,VWS V14.01,2013-06-05 16:50:00,
2013-06-05 12:52:00,86.1,74.7,29.62,South,184,2.7,3.6,69,0.00,,,0.00,VWS V14.01,2013-06-05 16:52:00,
2013-06-05 12:57:00,86.1,74.7,29.62,WNW,300,0.0,3.6,69,0.00,,,0.00,VWS V14.01,2013-06-05 16:57:00,
2013-06-05 13:00:00,85.9,74.6,29.62,ESE,118,2.7,3.6,69,0.00,,,0.00,VWS V14.01,2013-06-05 17:00:00,
2013-06-05 13:02:00,85.9,74.6,29.62,ESE,118,2.7,2.7,69,0.00,,,0.00,VWS V14.01,2013-06-05 17:02:00,
2013-06-05 13:07:00,84.1,73.8,29.62,SSE,160,3.1,3.6,71,0.00,,,0.00,VWS V14.01,2013-06-05 17:07:00,
2013-06-05 13:12:00,83.9,74.6,29.62,West,273,0.0,3.6,74,0.00,,,0.00,VWS V14.01,2013-06-05 17:12:00,
2013-06-05 13:17:00,83.7,74.4,29.62,West,273,0.0,3.6,74,0.00,,,0.00,VWS V14.01,2013-06-05 17:17:00,
2013-06-05 13:20:00,83.7,74.4,29.62,South,169,2.7,3.6,74,0.00,,,0.00,VWS V14.01,2013-06-05 17:20:00,
2013-06-05 13:22:00,84.6,75.3,29.62,West,262,0.0,2.7,74,0.00,,,0.00,VWS V14.01,2013-06-05 17:22:00,
2013-06-05 13:27:00,84.6,74.3,29.62,North,5,0.0,2.7,71,0.00,,,0.00,VWS V14.01,2013-06-05 17:27:00,
2013-06-05 13:30:00,84.6,74.3,29.62,North,5,0.0,2.7,71,0.00,,,0.00,VWS V14.01,2013-06-05 17:30:00,
2013-06-05 13:32:00,84.3,74.9,29.62,NE,50,2.7,2.7,74,0.00,,,0.00,VWS V14.01,2013-06-05 17:32:00,
2013-06-05 13:37:00,83.4,74.1,29.59,North,0,2.7,3.1,74,0.00,,,0.00,VWS V14.01,2013-06-05 17:37:00,
2013-06-05 13:40:00,83.0,75.5,29.59,NNE,33,0.0,3.1,78,0.00,,,0.00,VWS V14.01,2013-06-05 17:40:00,
2013-06-05 13:42:00,82.7,76.1,29.59,North,9,2.7,2.7,80,0.00,,,0.00,VWS V14.01,2013-06-05 17:42:00,
2013-06-05 13:47:00,82.7,76.1,29.59,NNE,18,2.2,3.6,80,0.00,,,0.00,VWS V14.01,2013-06-05 17:47:00,
2013-06-05 13:50:00,81.8,76.8,29.59,North,0,3.1,3.6,85,0.00,,,0.00,VWS V14.01,2013-06-05 17:50:00,
2013-06-05 13:52:00,81.6,77.5,29.59,North,0,3.1,3.1,87,0.00,,,0.00,VWS V14.01,2013-06-05 17:52:00,
2013-06-05 13:57:00,82.3,75.7,29.59,NW,306,2.7,3.1,80,0.00,,,0.00,VWS V14.01,2013-06-05 17:57:00,
2013-06-05 14:02:00,83.4,76.8,29.59,NNE,27,0.0,0.0,80,0.00,,,0.00,VWS V14.01,2013-06-05 18:02:00,
2013-06-05 14:07:00,84.5,76.9,29.59,SSE,167,0.0,0.0,78,0.00,,,0.00,VWS V14.01,2013-06-05 18:07:00,
2013-06-05 14:10:00,84.5,76.9,29.59,NE,43,3.6,3.6,78,0.00,,,0.00,VWS V14.01,2013-06-05 18:10:00,
2013-06-05 14:12:00,84.5,76.9,29.59,North,3,3.1,3.6,78,0.00,,,0.00,VWS V14.01,2013-06-05 18:12:00,
2013-06-05 14:17:00,83.2,75.7,29.59,NE,39,3.1,3.6,78,0.00,,,0.00,VWS V14.01,2013-06-05 18:17:00,
2013-06-05 14:20:00,82.8,75.4,29.59,NE,39,3.1,3.6,78,0.00,,,0.00,VWS V14.01,2013-06-05 18:20:00,
2013-06-05 14:22:00,82.8,75.4,29.59,NW,326,2.7,3.1,78,0.00,,,0.00,VWS V14.01,2013-06-05 18:22:00,
2013-06-05 14:27:00,82.7,76.1,29.59,West,261,0.0,3.1,80,0.00,,,0.00,VWS V14.01,2013-06-05 18:27:00,
2013-06-05 14:30:00,82.7,76.1,29.59,NE,43,0.0,3.1,80,0.00,,,0.00,VWS V14.01,2013-06-05 18:30:00,
2013-06-05 14:32:00,82.3,76.6,29.59,NE,43,0.0,0.0,83,0.00,,,0.00,VWS V14.01,2013-06-05 18:32:00,
2013-06-05 14:37:00,82.1,78.8,29.59,NNW,332,0.0,0.0,90,0.00,,,0.00,VWS V14.01,2013-06-05 18:37:00,
2013-06-05 14:42:00,79.8,78.0,29.59,NNW,332,0.0,0.0,94,0.00,,,0.00,VWS V14.01,2013-06-05 18:42:00,
2013-06-05 14:47:00,79.6,79.6,29.59,NNW,332,0.0,0.0,100,0.00,,,0.00,VWS V14.01,2013-06-05 18:47:00,
2013-06-05 14:52:00,79.8,79.8,29.59,NNW,327,0.0,0.0,100,0.00,,,0.00,VWS V14.01,2013-06-05 18:52:00,
2013-06-05 14:57:00,79.2,79.2,29.56,SSW,207,0.0,3.1,100,0.00,,,0.00,VWS V14.01,2013-06-05 18:57:00,
2013-06-05 15:00:00,79.2,79.2,29.56,SSW,207,0.0,3.1,100,0.00,,,0.00,VWS V14.01,2013-06-05 19:00:00,
2013-06-05 15:03:00,79.2,79.2,29.56,SSW,207,0.0,0.0,100,0.00,,,0.00,VWS V14.01,2013-06-05 19:03:00,
2013-06-05 15:08:00,78.5,78.5,29.56,ESE,119,3.1,3.1,100,0.00,,,0.00,VWS V14.01,2013-06-05 19:08:00,
2013-06-05 15:10:00,78.3,78.3,29.56,SSE,152,0.0,3.1,100,0.00,,,0.00,VWS V14.01,2013-06-05 19:10:00,
2013-06-05 15:13:00,77.8,77.8,29.56,South,175,2.2,2.2,100,0.00,,,0.00,VWS V14.01,2013-06-05 19:13:00,
2013-06-05 15:18:00,77.4,77.4,29.56,South,175,2.2,2.2,100,0.00,,,0.00,VWS V14.01,2013-06-05 19:18:00,
2013-06-05 15:20:00,77.3,77.3,29.56,WSW,248,0.0,2.2,100,0.00,,,0.00,VWS V14.01,2013-06-05 19:20:00,
2013-06-05 15:23:00,77.3,77.3,29.59,West,260,0.0,0.0,100,0.00,,,0.00,VWS V14.01,2013-06-05 19:23:00,
2013-06-05 15:28:00,76.5,76.6,29.59,ENE,65,0.0,0.0,100,0.00,,,0.00,VWS V14.01,2013-06-05 19:28:00,
2013-06-05 15:33:00,76.5,76.6,29.59,SSW,193,2.7,2.7,100,0.00,,,0.00,VWS V14.01,2013-06-05 19:33:00,
2013-06-05 15:38:00,76.5,76.6,29.59,West,275,2.7,2.7,100,0.00,,,0.00,VWS V14.01,2013-06-05 19:38:00,
2013-06-05 15:40:00,76.5,76.6,29.59,WSW,251,0.0,2.7,100,0.00,,,0.00,VWS V14.01,2013-06-05 19:40:00,
2013-06-05 15:43:00,77.1,77.1,29.59,WSW,251,0.0,0.0,100,0.00,,,0.00,VWS V14.01,2013-06-05 19:43:00,
2013-06-05 15:48:00,77.1,77.1,29.59,South,190,2.7,5.4,100,0.00,,,0.00,VWS V14.01,2013-06-05 19:48:00,
2013-06-05 15:50:00,76.9,76.9,29.59,NNW,341,3.6,5.4,100,0.00,,,0.00,VWS V14.01,2013-06-05 19:50:00,
2013-06-05 15:53:00,76.9,76.9,29.56,NNW,341,3.6,3.6,100,0.00,,,0.00,VWS V14.01,2013-06-05 19:53:00,
2013-06-05 15:58:00,76.9,76.9,29.56,SW,221,3.1,3.6,100,0.00,,,0.00,VWS V14.01,2013-06-05 19:58:00,
2013-06-05 16:00:00,75.8,75.8,29.56,NNE,33,5.4,5.4,100,0.00,,,0.00,VWS V14.01,2013-06-05 20:00:00,
2013-06-05 16:03:00,75.8,75.8,29.56,NE,35,7.2,7.2,100,0.00,,,0.00,VWS V14.01,2013-06-05 20:03:00,
2013-06-05 16:08:00,74.9,74.9,29.59,SSE,168,5.4,7.2,100,0.00,,,0.00,VWS V14.01,2013-06-05 20:08:00,
2013-06-05 16:13:00,74.6,74.6,29.59,ENE,68,5.8,5.8,100,0.00,,,0.00,VWS V14.01,2013-06-05 20:13:00,
2013-06-05 16:18:00,74.2,74.2,29.59,NNW,335,2.7,5.8,100,0.00,,,0.00,VWS V14.01,2013-06-05 20:18:00,
2013-06-05 16:20:00,74.2,74.2,29.59,NNW,335,2.7,5.8,100,0.00,,,0.00,VWS V14.01,2013-06-05 20:20:00,
2013-06-05 16:23:00,74.0,74.0,29.59,North,6,5.4,5.8,100,0.00,,,0.00,VWS V14.01,2013-06-05 20:23:00,
2013-06-05 16:28:00,73.7,73.7,29.59,North,10,4.0,5.8,100,0.00,,,0.00,VWS V14.01,2013-06-05 20:28:00,
2013-06-05 16:30:00,73.7,73.7,29.59,North,1,2.7,5.8,100,0.00,,,0.00,VWS V14.01,2013-06-05 20:30:00,
2013-06-05 16:33:00,73.5,73.5,29.59,NNW,334,2.2,2.7,100,0.00,,,0.00,VWS V14.01,2013-06-05 20:33:00,
2013-06-05 16:38:00,73.3,73.3,29.59,NNE,33,0.0,2.7,100,0.00,,,0.00,VWS V14.01,2013-06-05 20:38:00,
2013-06-05 16:43:00,73.1,73.1,29.56,North,2,2.2,2.2,100,0.00,,,0.00,VWS V14.01,2013-06-05 20:43:00,
2013-06-05 16:48:00,73.1,73.1,29.56,NE,49,3.6,3.6,100,0.00,,,0.00,VWS V14.01,2013-06-05 20:48:00,
2013-06-05 16:50:00,73.1,73.1,29.56,NNW,345,3.1,3.6,100,0.00,,,0.00,VWS V14.01,2013-06-05 20:50:00,
2013-06-05 16:58:00,72.9,72.9,29.56,NNE,20,2.7,3.1,100,0.00,,,0.00,VWS V14.01,2013-06-05 20:58:00,
2013-06-05 17:00:00,73.1,73.1,29.56,NNE,20,2.7,3.1,100,0.00,,,0.00,VWS V14.01,2013-06-05 21:00:00,
2013-06-05 17:03:00,73.1,73.1,29.56,NNE,20,2.7,2.7,100,0.00,,,0.00,VWS V14.01,2013-06-05 21:03:00,
2013-06-05 17:08:00,73.1,73.1,29.56,NW,317,4.0,4.0,100,0.00,,,0.00,VWS V14.01,2013-06-05 21:08:00,
2013-06-05 17:10:00,73.3,73.3,29.56,NNE,24,3.1,4.0,100,0.00,,,0.00,VWS V14.01,2013-06-05 21:10:00,
2013-06-05 17:18:00,73.3,73.3,29.56,NE,47,2.7,4.0,100,0.00,,,0.00,VWS V14.01,2013-06-05 21:18:00,
2013-06-05 17:20:00,73.3,73.3,29.56,NNW,330,2.7,4.0,100,0.00,,,0.00,VWS V14.01,2013-06-05 21:20:00,
2013-06-05 17:23:00,73.3,73.3,29.56,NNE,14,5.4,5.4,100,0.00,,,0.00,VWS V14.01,2013-06-05 21:23:00,
2013-06-05 17:28:00,73.3,73.3,29.56,North,353,0.0,5.4,100,0.00,,,0.00,VWS V14.01,2013-06-05 21:28:00,
2013-06-05 17:30:00,73.3,73.3,29.56,North,11,2.7,5.4,100,0.00,,,0.00,VWS V14.01,2013-06-05 21:30:00,
2013-06-05 17:33:00,73.7,73.7,29.56,WNW,297,3.1,4.0,100,0.00,,,0.00,VWS V14.01,2013-06-05 21:33:00,
2013-06-05 17:38:00,73.7,73.7,29.56,NNW,335,3.6,4.0,100,0.00,,,0.00,VWS V14.01,2013-06-05 21:38:00,
2013-06-05 17:43:00,74.2,74.2,29.56,ENE,73,3.1,3.1,100,0.00,,,0.00,VWS V14.01,2013-06-05 21:43:00,
2013-06-05 17:48:00,74.4,74.4,29.56,NNE,30,3.6,4.9,100,0.00,,,0.00,VWS V14.01,2013-06-05 21:48:00,
2013-06-05 17:50:00,74.4,74.4,29.56,NNE,26,5.8,5.8,100,0.00,,,0.00,VWS V14.01,2013-06-05 21:50:00,
2013-06-05 17:53:00,74.4,74.4,29.56,North,0,4.0,5.8,100,0.00,,,0.00,VWS V14.01,2013-06-05 21:53:00,
2013-06-05 17:58:00,75.5,75.5,29.56,WNW,295,3.1,5.8,100,0.00,,,0.00,VWS V14.01,2013-06-05 21:58:00,
2013-06-05 18:00:00,75.8,75.8,29.56,North,357,2.7,5.8,100,0.00,,,0.00,VWS V14.01,2013-06-05 22:00:00,
2013-06-05 18:08:00,76.7,76.7,29.53,ENE,66,3.1,3.1,100,0.00,,,0.00,VWS V14.01,2013-06-05 22:08:00,
2013-06-05 18:10:00,76.5,76.6,29.53,ENE,66,3.1,3.1,100,0.00,,,0.00,VWS V14.01,2013-06-05 22:10:00,
2013-06-05 18:13:00,76.5,76.6,29.53,ENE,58,0.0,6.3,100,0.00,,,0.00,VWS V14.01,2013-06-05 22:13:00,
2013-06-05 18:18:00,76.5,76.6,29.53,NNE,21,3.1,6.3,100,0.00,,,0.00,VWS V14.01,2013-06-05 22:18:00,
2013-06-05 18:20:00,76.5,76.6,29.53,NNE,21,3.1,6.3,100,0.00,,,0.00,VWS V14.01,2013-06-05 22:20:00,
2013-06-05 18:23:00,76.5,76.6,29.53,SW,234,3.6,4.0,100,0.00,,,0.00,VWS V14.01,2013-06-05 22:23:00,
2013-06-05 18:28:00,76.9,76.9,29.53,NE,38,2.7,4.0,100,0.00,,,0.00,VWS V14.01,2013-06-05 22:28:00,
2013-06-05 18:30:00,76.9,76.9,29.53,North,0,0.0,4.0,100,0.00,,,0.00,VWS V14.01,2013-06-05 22:30:00,
2013-06-05 18:33:00,76.9,76.9,29.53,WNW,290,3.1,3.1,100,0.00,,,0.00,VWS V14.01,2013-06-05 22:33:00,
2013-06-05 18:38:00,76.4,76.4,29.53,NW,308,3.1,3.1,100,0.00,,,0.00,VWS V14.01,2013-06-05 22:38:00,
2013-06-05 18:40:00,76.4,76.4,29.53,North,3,4.0,4.0,100,0.00,,,0.00,VWS V14.01,2013-06-05 22:40:00,
2013-06-05 18:43:00,76.4,76.4,29.53,North,353,5.4,5.4,100,0.00,,,0.00,VWS V14.01,2013-06-05 22:43:00,
2013-06-05 18:48:00,75.8,75.8,29.53,North,10,2.7,5.4,100,0.00,,,0.00,VWS V14.01,2013-06-05 22:48:00,
2013-06-05 18:50:00,75.8,75.8,29.53,North,357,4.9,5.4,100,0.00,,,0.00,VWS V14.01,2013-06-05 22:50:00,
2013-06-05 18:53:00,75.5,75.5,29.53,NNE,20,3.6,4.9,100,0.00,,,0.00,VWS V14.01,2013-06-05 22:53:00,
2013-06-05 18:58:00,75.3,75.3,29.53,NNE,15,2.7,4.9,100,0.00,,,0.00,VWS V14.01,2013-06-05 22:58:00,
2013-06-05 19:00:00,74.7,74.8,29.53,NNE,15,2.7,4.9,100,0.00,,,0.00,VWS V14.01,2013-06-05 23:00:00,
2013-06-05 19:03:00,74.6,74.6,29.53,SW,224,3.1,3.1,100,0.00,,,0.00,VWS V14.01,2013-06-05 23:03:00,
2013-06-05 19:08:00,74.4,74.4,29.50,NNE,20,0.0,3.1,100,0.00,,,0.00,VWS V14.01,2013-06-05 23:08:00,
2013-06-05 19:10:00,74.4,74.4,29.50,ENE,58,3.6,3.6,100,0.00,,,0.00,VWS V14.01,2013-06-05 23:10:00,
2013-06-05 19:13:00,74.4,74.4,29.50,NNE,30,0.0,3.6,100,0.00,,,0.00,VWS V14.01,2013-06-05 23:13:00,
2013-06-05 19:18:00,74.2,74.2,29.50,NE,52,0.0,3.6,100,0.00,,,0.00,VWS V14.01,2013-06-05 23:18:00,
2013-06-05 19:20:00,74.2,74.2,29.50,NE,52,0.0,3.6,100,0.00,,,0.00,VWS V14.01,2013-06-05 23:20:00,
2013-06-05 19:23:00,74.2,74.2,29.53,East,86,0.0,0.0,100,0.00,,,0.00,VWS V14.01,2013-06-05 23:23:00,
2013-06-05 19:28:00,74.2,74.2,29.53,NNE,31,0.0,2.2,100,0.00,,,0.00,VWS V14.01,2013-06-05 23:28:00,
2013-06-05 19:33:00,74.0,74.0,29.53,SSE,161,2.7,3.1,100,0.00,,,0.00,VWS V14.01,2013-06-05 23:33:00,
2013-06-05 19:38:00,74.0,74.0,29.53,NE,45,3.6,4.0,100,0.00,,,0.00,VWS V14.01,2013-06-05 23:38:00,
2013-06-05 19:40:00,74.0,74.0,29.53,ESE,102,2.7,4.0,100,0.00,,,0.00,VWS V14.01,2013-06-05 23:40:00,
2013-06-05 19:43:00,73.1,73.1,29.53,WNW,285,3.1,3.1,100,0.00,,,0.00,VWS V14.01,2013-06-05 23:43:00,
2013-06-05 19:48:00,73.1,73.1,29.53,WNW,288,3.1,3.1,100,0.00,,,0.00,VWS V14.01,2013-06-05 23:48:00,
2013-06-05 19:50:00,73.1,73.1,29.53,NW,313,2.2,3.1,100,0.00,,,0.00,VWS V14.01,2013-06-05 23:50:00,
2013-06-05 19:53:00,72.6,72.6,29.53,NNE,33,2.7,2.7,100,0.00,,,0.00,VWS V14.01,2013-06-05 23:53:00,
2013-06-05 19:58:00,72.6,72.6,29.53,North,11,0.0,3.1,100,0.00,,,0.00,VWS V14.01,2013-06-05 23:58:00,
2013-06-05 20:00:00,72.6,72.6,29.53,WSW,239,2.2,3.1,100,0.00,,,0.00,VWS V14.01,2013-06-06 00:00:00,
2013-06-05 20:08:00,72.2,72.2,29.53,NNW,336,2.7,2.7,100,0.00,,,0.00,VWS V14.01,2013-06-06 00:08:00,
2013-06-05 20:10:00,72.2,72.2,29.53,NNW,336,2.7,2.7,100,0.00,,,0.00,VWS V14.01,2013-06-06 00:10:00,
2013-06-05 20:13:00,72.2,72.2,29.53,SW,214,0.0,2.7,100,0.00,,,0.00,VWS V14.01,2013-06-06 00:13:00,
2013-06-05 20:18:00,72.0,72.0,29.56,SW,214,0.0,2.7,100,0.00,,,0.00,VWS V14.01,2013-06-06 00:18:00,
2013-06-05 20:20:00,71.9,71.9,29.56,West,266,0.0,2.7,100,0.00,,,0.00,VWS V14.01,2013-06-06 00:20:00,
2013-06-05 20:28:00,71.9,71.9,29.56,West,266,0.0,0.0,100,0.00,,,0.00,VWS V14.01,2013-06-06 00:28:00,
2013-06-05 20:30:00,71.9,71.9,29.56,West,261,0.0,0.0,100,0.00,,,0.00,VWS V14.01,2013-06-06 00:30:00,
2013-06-05 20:33:00,71.9,71.9,29.56,WSW,251,0.0,2.7,100,0.00,,,0.00,VWS V14.01,2013-06-06 00:33:00,
2013-06-05 20:38:00,71.3,71.3,29.56,WSW,251,0.0,2.7,100,0.00,,,0.00,VWS V14.01,2013-06-06 00:38:00,
2013-06-05 20:40:00,71.3,71.3,29.56,WSW,251,0.0,2.7,100,0.00,,,0.00,VWS V14.01,2013-06-06 00:40:00,
2013-06-05 20:43:00,71.1,71.1,29.56,SSW,211,0.0,0.0,100,0.00,,,0.00,VWS V14.01,2013-06-06 00:43:00,
2013-06-05 20:48:00,71.1,71.1,29.56,West,267,0.0,0.0,100,0.00,,,0.00,VWS V14.01,2013-06-06 00:48:00,
2013-06-05 20:53:00,71.1,71.1,29.56,West,267,0.0,0.0,100,0.00,,,0.00,VWS V14.01,2013-06-06 00:53:00,
2013-06-05 20:58:00,71.1,71.1,29.56,SW,221,0.0,0.0,100,0.00,,,0.00,VWS V14.01,2013-06-06 00:58:00,
2013-06-05 21:00:00,71.1,71.1,29.56,SW,221,0.0,0.0,100,0.00,,,0.00,VWS V14.01,2013-06-06 01:00:00,
2013-06-05 21:03:00,70.8,70.8,29.56,SW,221,0.0,0.0,100,0.00,,,0.00,VWS V14.01,2013-06-06 01:03:00,
2013-06-05 21:08:00,70.8,70.8,29.56,SW,216,0.0,0.0,100,0.00,,,0.00,VWS V14.01,2013-06-06 01:08:00,
2013-06-05 21:10:00,70.8,70.8,29.56,SW,216,0.0,0.0,100,0.00,,,0.00,VWS V14.01,2013-06-06 01:10:00,
2013-06-05 21:13:00,70.8,70.8,29.56,South,179,0.0,0.0,100,0.00,,,0.00,VWS V14.01,2013-06-06 01:13:00,
2013-06-05 21:18:00,70.8,70.8,29.56,South,179,0.0,0.0,100,0.00,,,0.00,VWS V14.01,2013-06-06 01:18:00,
2013-06-05 21:20:00,70.8,70.8,29.56,South,179,0.0,0.0,100,0.00,,,0.00,VWS V14.01,2013-06-06 01:20:00,
2013-06-05 21:28:00,70.8,70.8,29.56,South,179,0.0,0.0,100,0.00,,,0.00,VWS V14.01,2013-06-06 01:28:00,
2013-06-05 21:30:00,70.8,70.8,29.56,SSW,197,0.0,0.0,100,0.00,,,0.00,VWS V14.01,2013-06-06 01:30:00,
2013-06-05 21:33:00,70.8,70.8,29.56,SSW,197,0.0,0.0,100,0.00,,,0.00,VWS V14.01,2013-06-06 01:33:00,
2013-06-05 21:38:00,70.8,70.8,29.56,South,182,0.0,0.0,100,0.00,,,0.00,VWS V14.01,2013-06-06 01:38:00,
2013-06-05 21:40:00,70.8,70.8,29.56,South,182,0.0,0.0,100,0.00,,,0.00,VWS V14.01,2013-06-06 01:40:00,
2013-06-05 21:43:00,70.8,70.8,29.56,SSE,161,0.0,0.0,100,0.00,,,0.00,VWS V14.01,2013-06-06 01:43:00,
2013-06-05 21:48:00,70.6,70.6,29.56,SSE,161,0.0,0.0,100,0.00,,,0.00,VWS V14.01,2013-06-06 01:48:00,
2013-06-05 21:50:00,70.6,70.6,29.56,SSE,161,0.0,0.0,100,0.00,,,0.00,VWS V14.01,2013-06-06 01:50:00,
2013-06-05 21:53:00,70.6,70.6,29.56,SSE,162,0.0,0.0,100,0.00,,,0.00,VWS V14.01,2013-06-06 01:53:00,
2013-06-05 21:58:00,70.6,70.6,29.56,SSE,162,0.0,0.0,100,0.00,,,0.00,VWS V14.01,2013-06-06 01:58:00,
2013-06-05 22:00:00,70.6,70.6,29.56,SSE,162,0.0,0.0,100,0.00,,,0.00,VWS V14.01,2013-06-06 02:00:00,
2013-06-05 22:03:00,70.6,70.6,29.56,South,169,0.0,0.0,100,0.00,,,0.00,VWS V14.01,2013-06-06 02:03:00,
2013-06-05 22:08:00,70.6,70.6,29.59,South,180,0.0,0.0,100,0.00,,,0.00,VWS V14.01,2013-06-06 02:08:00,
2013-06-05 22:10:00,70.6,70.6,29.59,South,180,0.0,0.0,100,0.00,,,0.00,VWS V14.01,2013-06-06 02:10:00,
2013-06-05 22:18:00,70.6,70.6,29.59,SW,236,0.0,0.0,100,0.00,,,0.00,VWS V14.01,2013-06-06 02:18:00,
2013-06-05 22:20:00,70.6,70.6,29.59,SW,236,0.0,0.0,100,0.00,,,0.00,VWS V14.01,2013-06-06 02:20:00,
2013-06-05 22:23:00,70.6,70.6,29.59,SW,236,0.0,0.0,100,0.00,,,0.00,VWS V14.01,2013-06-06 02:23:00,
2013-06-05 22:28:00,70.6,70.6,29.59,WSW,237,0.0,0.0,100,0.00,,,0.00,VWS V14.01,2013-06-06 02:28:00,
2013-06-05 22:33:00,70.6,70.6,29.59,WSW,237,0.0,0.0,100,0.00,,,0.00,VWS V14.01,2013-06-06 02:33:00,
2013-06-05 22:38:00,70.6,70.6,29.59,WSW,237,0.0,0.0,100,0.00,,,0.00,VWS V14.01,2013-06-06 02:38:00,
2013-06-05 22:40:00,70.6,70.6,29.59,SE,133,0.0,0.0,100,0.00,,,0.00,VWS V14.01,2013-06-06 02:40:00,
2013-06-05 22:43:00,70.6,70.6,29.59,SE,133,0.0,0.0,100,0.00,,,0.00,VWS V14.01,2013-06-06 02:43:00,
2013-06-05 22:48:00,70.4,70.4,29.59,SE,133,0.0,0.0,100,0.00,,,0.00,VWS V14.01,2013-06-06 02:48:00,
2013-06-05 22:50:00,70.4,70.4,29.59,SE,133,0.0,0.0,100,0.00,,,0.00,VWS V14.01,2013-06-06 02:50:00,
2013-06-05 22:53:00,70.4,70.4,29.59,SE,133,0.0,0.0,100,0.00,,,0.00,VWS V14.01,2013-06-06 02:53:00,
2013-06-05 22:58:00,70.4,70.4,29.59,SE,133,0.0,0.0,100,0.00,,,0.00,VWS V14.01,2013-06-06 02:58:00,
2013-06-05 23:00:00,70.4,70.4,29.59,SE,133,0.0,0.0,100,0.00,,,0.00,VWS V14.01,2013-06-06 03:00:00,
2013-06-05 23:03:00,70.4,70.4,29.59,SE,138,0.0,0.0,100,0.00,,,0.00,VWS V14.01,2013-06-06 03:03:00,
2013-06-05 23:08:00,70.2,70.2,29.59,SE,138,0.0,0.0,100,0.00,,,0.00,VWS V14.01,2013-06-06 03:08:00,
2013-06-05 23:10:00,70.2,70.2,29.59,SE,138,0.0,0.0,100,0.00,,,0.00,VWS V14.01,2013-06-06 03:10:00,
2013-06-05 23:13:00,70.2,70.2,29.59,SE,138,0.0,0.0,100,0.00,,,0.00,VWS V14.01,2013-06-06 03:13:00,
2013-06-05 23:18:00,70.2,70.2,29.59,SE,138,0.0,0.0,100,0.00,,,0.00,VWS V14.01,2013-06-06 03:18:00,
2013-06-05 23:20:00,70.2,70.2,29.59,SE,138,0.0,0.0,100,0.00,,,0.00,VWS V14.01,2013-06-06 03:20:00,
2013-06-05 23:23:00,70.2,70.2,29.59,SE,138,0.0,0.0,100,0.00,,,0.00,VWS V14.01,2013-06-06 03:23:00,
2013-06-05 23:29:00,70.2,70.2,29.59,SE,138,0.0,0.0,100,0.00,,,0.00,VWS V14.01,2013-06-06 03:29:00,
2013-06-05 23:34:00,70.2,70.2,29.59,SSW,211,0.0,0.0,100,0.00,,,0.00,VWS V14.01,2013-06-06 03:34:00,
2013-06-05 23:39:00,70.1,70.1,29.59,SSW,211,0.0,0.0,100,0.00,,,0.00,VWS V14.01,2013-06-06 03:39:00,
2013-06-05 23:44:00,70.1,70.1,29.59,SSW,206,0.0,0.0,100,0.00,,,0.00,VWS V14.01,2013-06-06 03:44:00,
2013-06-05 23:49:00,69.9,69.9,29.59,SSW,206,0.0,0.0,100,0.00,,,0.00,VWS V14.01,2013-06-06 03:49:00,
2013-06-05 23:50:00,69.9,69.9,29.59,SSW,206,0.0,0.0,100,0.00,,,0.00,VWS V14.01,2013-06-06 03:50:00,
2013-06-05 23:54:00,69.9,69.9,29.59,SSW,206,0.0,0.0,100,0.00,,,0.00,VWS V14.01,2013-06-06 03:54:00,
2013-06-05 23:59:00,69.9,69.9,29.59,SSW,206,0.0,0.0,100,0.00,,,0.00,VWS V14.01,2013-06-06 03:59:00,